createdAt,value
2018-06-03T00:01:20.001Z,16.91
2018-06-03T00:03:48.323Z,16.95
2018-06-03T00:06:16.759Z,17.03
2018-06-03T00:08:45.899Z,17.05
2018-06-03T00:11:14.251Z,17.07
2018-06-03T00:13:42.873Z,17.07
2018-06-03T00:16:11.230Z,17.08
2018-06-03T00:18:39.613Z,17.07
2018-06-03T00:21:35.304Z,17.18
2018-06-03T00:24:03.632Z,17.14
2018-06-03T00:26:32.067Z,17.08
2018-06-03T00:29:00.395Z,17.10
2018-06-03T00:31:28.751Z,17.10
2018-06-03T00:33:57.103Z,17.10
2018-06-03T00:36:44.130Z,17.12
2018-06-03T00:39:12.430Z,17.11
2018-06-03T00:41:40.702Z,17.07
2018-06-03T00:44:09.019Z,17.13
2018-06-03T00:46:37.402Z,17.26
2018-06-03T00:49:05.724Z,17.23
2018-06-03T00:51:34.059Z,17.26
2018-06-03T00:54:02.356Z,17.19
2018-06-03T00:56:48.385Z,17.09
2018-06-03T00:59:16.695Z,17.02
2018-06-03T01:01:44.999Z,17.00
2018-06-03T01:04:14.156Z,17.02
2018-06-03T01:06:42.451Z,17.06
2018-06-03T01:09:10.791Z,17.08
2018-06-03T01:11:39.099Z,17.08
2018-06-03T01:14:07.408Z,17.09
2018-06-03T01:16:35.739Z,17.14
2018-06-03T01:19:04.792Z,17.12
2018-06-03T01:21:33.087Z,17.19
2018-06-03T01:24:01.386Z,17.08
2018-06-03T01:26:29.743Z,17.08
2018-06-03T01:28:58.025Z,17.06
2018-06-03T01:31:26.456Z,17.05
2018-06-03T01:33:55.508Z,17.24
2018-06-03T01:36:23.818Z,17.30
2018-06-03T01:38:52.095Z,17.33
2018-06-03T01:41:20.395Z,17.42
2018-06-03T01:43:48.717Z,17.38
2018-06-03T01:46:17.052Z,17.34
2018-06-03T01:48:46.121Z,17.32
2018-06-03T01:51:14.418Z,17.30
2018-06-03T01:53:43.514Z,17.38
2018-06-03T01:56:12.549Z,17.36
2018-06-03T01:58:40.876Z,17.37
2018-06-03T02:01:09.174Z,17.42
2018-06-03T02:03:38.238Z,17.42
2018-06-03T02:06:06.513Z,17.46
2018-06-03T02:08:34.848Z,17.46
2018-06-03T02:11:03.165Z,17.46
2018-06-03T02:13:31.466Z,17.44
2018-06-03T02:16:00.639Z,17.52
2018-06-03T02:18:28.944Z,17.56
2018-06-03T02:20:58.055Z,17.59
2018-06-03T02:23:26.396Z,17.62
2018-06-03T02:25:54.703Z,17.64
2018-06-03T02:28:23.818Z,17.65
2018-06-03T02:30:52.140Z,17.66
2018-06-03T02:33:20.444Z,17.66
2018-06-03T02:35:49.569Z,17.65
2018-06-03T02:38:21.482Z,17.66
2018-06-03T02:40:49.803Z,17.63
2018-06-03T02:43:18.177Z,17.62
2018-06-03T02:45:47.244Z,17.62
2018-06-03T02:48:15.548Z,17.62
2018-06-03T02:50:43.853Z,17.66
2018-06-03T02:53:12.163Z,17.69
2018-06-03T02:55:40.480Z,17.69
2018-06-03T02:58:09.546Z,17.65
2018-06-03T03:00:37.843Z,17.64
2018-06-03T03:03:06.958Z,17.64
2018-06-03T03:05:35.266Z,17.66
2018-06-03T03:08:03.582Z,17.68
2018-06-03T03:10:31.904Z,17.68
2018-06-03T03:13:00.224Z,17.70
2018-06-03T03:15:28.525Z,17.75
2018-06-03T03:17:57.674Z,17.76
2018-06-03T03:20:25.971Z,17.81
2018-06-03T03:25:28.223Z,17.88
2018-06-03T03:27:56.543Z,17.80
2018-06-03T03:30:25.028Z,17.88
2018-06-03T03:32:53.428Z,17.86
2018-06-03T03:35:22.592Z,17.92
2018-06-03T03:37:50.883Z,17.90
2018-06-03T03:40:19.230Z,17.94
2018-06-03T03:42:47.533Z,17.89
2018-06-03T03:45:15.854Z,17.86
2018-06-03T03:47:44.174Z,17.91
2018-06-03T03:50:12.471Z,17.88
2018-06-03T03:52:40.905Z,18.00
2018-06-03T03:55:12.336Z,17.95
2018-06-03T03:57:40.621Z,17.94
2018-06-03T04:00:08.928Z,17.96
2018-06-03T04:02:37.231Z,17.83
2018-06-03T04:05:05.544Z,17.82
2018-06-03T04:07:33.870Z,17.86
2018-06-03T04:10:02.202Z,17.84
2018-06-03T04:12:31.284Z,17.71
2018-06-03T04:15:00.393Z,17.71
2018-06-03T04:17:29.454Z,17.72
2018-06-03T04:19:57.869Z,17.77
2018-06-03T04:22:26.927Z,17.84
2018-06-03T04:25:23.514Z,17.46
2018-06-03T04:27:56.888Z,17.54
2018-06-03T04:30:26.457Z,17.50
2018-06-03T04:35:30.828Z,17.72
2018-06-03T04:38:00.465Z,17.78
2018-06-03T04:40:30.085Z,17.83
2018-06-03T04:42:59.698Z,17.93
2018-06-03T04:45:29.263Z,17.94
2018-06-03T04:47:58.900Z,17.94
2018-06-03T04:50:28.831Z,17.97
2018-06-03T04:52:58.564Z,17.91
2018-06-03T04:55:28.108Z,18.04
2018-06-03T04:57:57.839Z,17.90
2018-06-03T05:00:27.378Z,17.86
2018-06-03T05:02:56.952Z,18.02
2018-06-03T05:05:26.647Z,18.02
2018-06-03T05:07:57.115Z,18.02
2018-06-03T05:10:26.680Z,18.23
2018-06-03T05:12:59.560Z,18.56
2018-06-03T05:15:29.191Z,18.59
2018-06-03T05:17:58.975Z,18.55
2018-06-03T05:23:05.007Z,18.37
2018-06-03T05:25:34.581Z,18.36
2018-06-03T05:28:04.285Z,18.69
2018-06-03T05:30:33.925Z,18.41
2018-06-03T05:33:03.519Z,18.25
2018-06-03T05:35:33.135Z,18.48
2018-06-03T05:38:02.878Z,18.38
2018-06-03T05:40:32.476Z,18.38
2018-06-03T05:43:02.168Z,18.98
2018-06-03T05:45:31.796Z,18.71
2018-06-03T05:48:01.411Z,19.30
2018-06-03T05:50:31.132Z,19.04
2018-06-03T05:53:00.801Z,19.14
2018-06-03T05:55:30.432Z,19.49
2018-06-03T05:58:00.064Z,19.26
2018-06-03T06:00:29.683Z,19.22
2018-06-03T06:02:59.345Z,19.48
2018-06-03T06:05:29.289Z,21.06
2018-06-03T06:07:58.838Z,21.04
2018-06-03T06:10:28.494Z,20.60
2018-06-03T06:12:58.211Z,20.60
2018-06-03T06:15:31.595Z,20.13
2018-06-03T06:18:01.204Z,20.30
2018-06-03T06:20:30.862Z,19.79
2018-06-03T06:23:00.625Z,20.12
2018-06-03T06:25:30.396Z,20.57
2018-06-03T06:27:59.984Z,20.24
2018-06-03T06:30:29.619Z,20.12
2018-06-03T06:32:59.276Z,19.89
2018-06-03T06:38:04.036Z,19.71
2018-06-03T06:40:33.690Z,20.07
2018-06-03T06:43:03.244Z,20.05
2018-06-03T06:45:32.895Z,20.24
2018-06-03T06:48:02.543Z,20.13
2018-06-03T06:50:36.130Z,20.37
2018-06-03T06:53:05.861Z,20.33
2018-06-03T06:55:35.489Z,20.79
2018-06-03T06:58:05.405Z,20.90
2018-06-03T07:00:34.981Z,20.78
2018-06-03T07:03:04.605Z,20.39
2018-06-03T07:05:34.259Z,20.52
2018-06-03T07:08:04.076Z,20.19
2018-06-03T07:13:09.314Z,20.82
2018-06-03T07:15:38.894Z,21.28
2018-06-03T07:18:08.583Z,21.37
2018-06-03T07:20:38.181Z,21.85
2018-06-03T07:23:07.774Z,21.67
2018-06-03T07:25:37.440Z,22.35
2018-06-03T07:28:07.106Z,22.86
2018-06-03T07:30:36.713Z,23.56
2018-06-03T07:33:06.461Z,24.31
2018-06-03T07:35:36.088Z,24.50
2018-06-03T07:38:05.735Z,23.50
2018-06-03T07:40:35.337Z,21.83
2018-06-03T07:43:08.415Z,21.98
2018-06-03T07:45:38.163Z,22.06
2018-06-03T07:48:07.852Z,21.55
2018-06-03T07:50:37.503Z,21.87
2018-06-03T07:53:07.067Z,21.56
2018-06-03T07:55:36.708Z,21.75
2018-06-03T07:58:06.313Z,20.96
2018-06-03T08:00:35.932Z,21.64
2018-06-03T08:03:05.689Z,21.12
2018-06-03T08:05:35.420Z,20.90
2018-06-03T08:08:05.202Z,20.98
2018-06-03T08:10:34.914Z,21.10
2018-06-03T08:13:04.515Z,21.29
2018-06-03T08:15:34.190Z,21.18
2018-06-03T08:18:03.859Z,21.00
2018-06-03T08:20:33.553Z,21.47
2018-06-03T08:23:03.224Z,21.57
2018-06-03T08:25:32.854Z,21.95
2018-06-03T08:28:02.518Z,22.08
2018-06-03T08:30:32.653Z,21.26
2018-06-03T08:33:02.259Z,22.32
2018-06-03T08:35:31.849Z,21.35
2018-06-03T08:38:01.467Z,23.14
2018-06-03T08:40:31.095Z,25.86
2018-06-03T08:43:00.729Z,24.39
2018-06-03T08:45:30.339Z,24.22
2018-06-03T08:47:59.907Z,26.11
2018-06-03T08:50:29.606Z,26.37
2018-06-03T08:52:59.162Z,25.10
2018-06-03T08:55:28.806Z,23.47
2018-06-03T08:57:58.450Z,23.40
2018-06-03T09:00:28.102Z,23.95
2018-06-03T09:02:57.737Z,22.50
2018-06-03T09:05:27.449Z,21.83
2018-06-03T09:07:57.019Z,21.36
2018-06-03T09:10:26.786Z,21.55
2018-06-03T09:12:56.418Z,21.17
2018-06-03T09:15:29.359Z,21.26
2018-06-03T09:17:58.960Z,22.13
2018-06-03T09:20:31.617Z,21.29
2018-06-03T09:23:01.322Z,20.99
2018-06-03T09:25:31.011Z,21.35
2018-06-03T09:28:00.670Z,21.19
2018-06-03T09:30:30.345Z,21.27
2018-06-03T09:33:00.013Z,21.32
2018-06-03T09:35:30.035Z,21.09
2018-06-03T09:37:59.758Z,21.84
2018-06-03T09:40:29.560Z,21.70
2018-06-03T09:42:59.273Z,22.19
2018-06-03T09:45:29.383Z,21.68
2018-06-03T09:47:59.158Z,22.01
2018-06-03T09:50:28.924Z,21.91
2018-06-03T09:52:58.675Z,22.66
2018-06-03T09:55:28.450Z,21.80
2018-06-03T09:57:58.054Z,22.52
2018-06-03T10:00:28.753Z,22.60
2018-06-03T10:02:58.331Z,22.70
2018-06-03T10:05:28.527Z,22.91
2018-06-03T10:08:02.084Z,22.44
2018-06-03T10:10:31.894Z,24.04
2018-06-03T10:13:01.552Z,24.11
2018-06-03T10:15:31.159Z,24.10
2018-06-03T10:18:00.837Z,23.63
2018-06-03T10:20:30.569Z,23.70
2018-06-03T10:23:00.195Z,22.30
2018-06-03T10:25:29.931Z,21.92
2018-06-03T10:28:03.148Z,21.57
2018-06-03T10:30:32.954Z,21.55
2018-06-03T10:33:02.871Z,21.17
2018-06-03T10:35:32.834Z,21.31
2018-06-03T10:38:02.709Z,21.53
2018-06-03T10:40:32.516Z,21.26
2018-06-03T10:43:02.142Z,21.29
2018-06-03T10:45:31.989Z,21.63
2018-06-03T10:48:01.657Z,22.23
2018-06-03T10:50:31.414Z,21.81
2018-06-03T10:53:01.183Z,21.71
2018-06-03T10:55:30.918Z,21.90
2018-06-03T10:58:00.921Z,21.88
2018-06-03T11:00:30.574Z,21.87
2018-06-03T11:03:00.369Z,21.76
2018-06-03T11:05:30.184Z,21.71
2018-06-03T11:07:59.926Z,21.98
2018-06-03T11:10:29.819Z,21.84
2018-06-03T11:12:59.499Z,22.83
2018-06-03T11:15:29.209Z,22.61
2018-06-03T11:17:59.003Z,22.67
2018-06-03T11:20:29.046Z,23.27
2018-06-03T11:22:58.785Z,22.42
2018-06-03T11:25:28.449Z,22.43
2018-06-03T11:27:58.172Z,22.67
2018-06-03T11:30:27.894Z,22.66
2018-06-03T11:32:57.568Z,22.64
2018-06-03T11:35:27.382Z,22.79
2018-06-03T11:37:57.066Z,22.84
2018-06-03T11:40:26.796Z,22.82
2018-06-03T11:42:56.517Z,23.16
2018-06-03T11:45:26.255Z,23.21
2018-06-03T11:47:55.882Z,23.03
2018-06-03T11:50:25.513Z,22.91
2018-06-03T11:52:55.386Z,22.54
2018-06-03T11:55:25.124Z,22.56
2018-06-03T11:58:41.493Z,22.67
2018-06-03T12:01:11.564Z,22.87
2018-06-03T12:03:41.610Z,22.48
2018-06-03T12:06:11.346Z,22.92
2018-06-03T12:08:41.327Z,23.23
2018-06-03T12:11:11.029Z,24.31
2018-06-03T12:13:40.908Z,23.64
2018-06-03T12:16:10.724Z,23.10
2018-06-03T12:18:40.515Z,24.48
2018-06-03T12:21:10.336Z,24.13
2018-06-03T12:23:40.840Z,22.97
2018-06-03T12:26:10.519Z,23.07
2018-06-03T12:28:40.355Z,23.58
2018-06-03T12:31:10.084Z,23.09
2018-06-03T12:33:39.774Z,22.86
2018-06-03T12:36:09.382Z,22.73
2018-06-03T12:38:38.745Z,22.67
2018-06-03T12:41:08.466Z,22.49
2018-06-03T12:43:38.150Z,22.80
2018-06-03T12:46:07.894Z,23.02
2018-06-03T12:48:37.542Z,23.62
2018-06-03T12:51:07.242Z,22.89
2018-06-03T12:53:36.957Z,22.53
2018-06-03T12:56:06.619Z,22.77
2018-06-03T12:58:36.219Z,22.75
2018-06-03T13:01:05.877Z,23.16
2018-06-03T13:03:35.412Z,22.69
2018-06-03T13:06:05.059Z,22.50
2018-06-03T13:11:09.541Z,22.30
2018-06-03T13:13:39.108Z,22.66
2018-06-03T13:16:08.725Z,22.90
2018-06-03T13:18:38.500Z,22.68
2018-06-03T13:21:08.154Z,23.54
2018-06-03T13:23:37.835Z,23.66
2018-06-03T13:26:07.580Z,22.79
2018-06-03T13:28:41.052Z,22.67
2018-06-03T13:31:10.691Z,23.39
2018-06-03T13:33:40.438Z,23.08
2018-06-03T13:36:10.093Z,23.46
2018-06-03T13:38:39.962Z,22.77
2018-06-03T13:41:09.598Z,22.70
2018-06-03T13:43:39.252Z,22.79
2018-06-03T13:46:08.911Z,22.67
2018-06-03T13:51:13.618Z,22.75
2018-06-03T13:53:43.496Z,22.70
2018-06-03T13:56:13.219Z,22.76
2018-06-03T13:58:42.845Z,22.58
2018-06-03T14:01:12.509Z,22.76
2018-06-03T14:03:42.247Z,23.04
2018-06-03T14:06:11.896Z,22.82
2018-06-03T14:08:41.954Z,22.95
2018-06-03T14:11:11.670Z,22.80
2018-06-03T14:13:41.370Z,23.24
2018-06-03T14:16:11.149Z,23.38
2018-06-03T14:18:40.788Z,23.41
2018-06-03T14:21:10.484Z,24.13
2018-06-03T14:23:40.169Z,23.65
2018-06-03T14:26:09.929Z,23.70
2018-06-03T14:28:39.505Z,24.22
2018-06-03T14:33:44.715Z,24.59
2018-06-03T14:36:15.723Z,24.18
2018-06-03T14:38:45.444Z,24.94
2018-06-03T14:41:15.164Z,24.81
2018-06-03T14:43:44.821Z,24.01
2018-06-03T14:46:18.433Z,24.05
2018-06-03T14:48:47.989Z,24.32
2018-06-03T14:51:17.645Z,24.05
2018-06-03T14:53:47.236Z,23.93
2018-06-03T14:56:16.923Z,23.73
2018-06-03T14:58:46.481Z,23.73
2018-06-03T15:01:16.061Z,23.79
2018-06-03T15:03:45.711Z,23.92
2018-06-03T15:06:15.338Z,24.16
2018-06-03T15:08:44.960Z,24.04
2018-06-03T15:11:14.658Z,24.54
2018-06-03T15:13:44.295Z,24.04
2018-06-03T15:16:17.668Z,23.98
2018-06-03T15:18:47.372Z,24.01
2018-06-03T15:21:17.119Z,24.40
2018-06-03T15:23:46.936Z,23.92
2018-06-03T15:26:16.759Z,23.79
2018-06-03T15:28:46.354Z,24.71
2018-06-03T15:31:16.082Z,24.22
2018-06-03T15:33:45.701Z,24.33
2018-06-03T15:36:15.402Z,23.73
2018-06-03T15:38:45.117Z,24.04
2018-06-03T15:43:50.215Z,24.20
2018-06-03T15:46:19.840Z,24.30
2018-06-03T15:48:49.411Z,24.31
2018-06-03T15:51:18.982Z,24.31
2018-06-03T15:53:48.636Z,24.52
2018-06-03T15:56:18.437Z,24.25
2018-06-03T15:58:48.124Z,24.10
2018-06-03T16:01:17.773Z,24.14
2018-06-03T16:03:47.403Z,23.85
2018-06-03T16:06:19.996Z,23.76
2018-06-03T16:08:49.630Z,23.56
2018-06-03T16:11:19.281Z,23.93
2018-06-03T16:13:48.924Z,23.99
2018-06-03T16:16:18.879Z,23.73
2018-06-03T16:18:48.617Z,23.84
2018-06-03T16:21:18.281Z,23.05
2018-06-03T16:23:47.955Z,23.27
2018-06-03T16:26:17.874Z,23.17
2018-06-03T16:28:47.568Z,23.19
2018-06-03T16:31:17.316Z,23.17
2018-06-03T16:33:47.061Z,22.85
2018-06-03T16:36:16.693Z,23.13
2018-06-03T16:38:49.821Z,22.93
2018-06-03T16:41:19.571Z,22.96
2018-06-03T16:46:24.179Z,23.19
2018-06-03T16:51:28.878Z,23.35
2018-06-03T16:54:05.643Z,23.56
2018-06-03T16:56:35.342Z,23.36
2018-06-03T16:59:05.432Z,22.99
2018-06-03T17:01:35.068Z,22.90
2018-06-03T17:04:05.892Z,22.86
2018-06-03T17:06:35.532Z,22.86
2018-06-03T17:09:06.805Z,22.71
2018-06-03T17:11:36.479Z,22.69
2018-06-03T17:14:06.197Z,22.76
2018-06-03T17:16:35.838Z,22.70
2018-06-03T17:19:05.518Z,22.72
2018-06-03T17:21:35.146Z,22.84
2018-06-03T17:24:05.222Z,22.88
2018-06-03T17:26:34.947Z,22.69
2018-06-03T17:29:07.520Z,22.78
2018-06-03T17:31:37.298Z,22.88
2018-06-03T17:34:07.079Z,22.69
2018-06-03T17:36:36.708Z,22.67
2018-06-03T17:39:08.969Z,22.62
2018-06-03T17:41:38.303Z,22.70
2018-06-03T17:44:07.955Z,22.53
2018-06-03T17:46:37.669Z,22.59
2018-06-03T17:49:07.623Z,22.55
2018-06-03T17:51:37.561Z,22.74
2018-06-03T17:54:07.283Z,22.65
2018-06-03T17:56:37.049Z,22.74
2018-06-03T17:59:06.892Z,22.74
2018-06-03T18:01:36.726Z,22.56
2018-06-03T18:04:06.647Z,22.66
2018-06-03T18:06:36.415Z,22.68
2018-06-03T18:09:08.926Z,22.63
2018-06-03T18:11:38.585Z,22.63
2018-06-03T18:14:08.586Z,22.55
2018-06-03T18:16:38.542Z,22.41
2018-06-03T18:19:08.266Z,22.28
2018-06-03T18:21:39.661Z,22.29
2018-06-03T18:24:09.223Z,22.17
2018-06-03T18:26:38.943Z,22.08
2018-06-03T18:29:08.653Z,22.14
2018-06-03T18:31:38.409Z,22.15
2018-06-03T18:34:08.158Z,22.13
2018-06-03T18:36:41.470Z,22.01
2018-06-03T18:39:11.210Z,22.03
2018-06-03T18:41:40.943Z,22.04
2018-06-03T18:44:10.692Z,21.99
2018-06-03T18:46:40.456Z,21.92
2018-06-03T18:49:10.345Z,21.84
2018-06-03T18:51:40.078Z,21.85
2018-06-03T18:54:09.793Z,21.80
2018-06-03T18:56:39.538Z,21.74
2018-06-03T18:59:09.501Z,21.71
2018-06-03T19:01:41.140Z,21.66
2018-06-03T19:04:11.092Z,21.64
2018-06-03T19:06:40.898Z,21.61
2018-06-03T19:09:10.645Z,21.58
2018-06-03T19:11:40.383Z,21.51
2018-06-03T19:14:10.304Z,21.48
2018-06-03T19:16:40.758Z,21.45
2018-06-03T19:19:10.585Z,21.37
2018-06-03T19:21:40.420Z,21.32
2018-06-03T19:24:10.293Z,21.35
2018-06-03T19:26:40.170Z,21.33
2018-06-03T19:29:10.225Z,21.27
2018-06-03T19:31:40.016Z,21.27
2018-06-03T19:34:09.943Z,21.20
2018-06-03T19:36:40.007Z,21.12
2018-06-03T19:39:10.471Z,21.03
2018-06-03T19:41:40.368Z,21.01
2018-06-03T19:44:10.443Z,20.90
2018-06-03T19:46:40.473Z,20.93
2018-06-03T19:49:10.149Z,20.87
2018-06-03T19:51:40.031Z,20.82
2018-06-03T19:54:09.961Z,20.73
2018-06-03T19:56:39.889Z,20.58
2018-06-03T19:59:09.685Z,20.48
2018-06-03T20:01:39.529Z,20.46
2018-06-03T20:04:09.316Z,20.55
2018-06-03T20:06:39.152Z,20.45
2018-06-03T20:09:09.363Z,20.27
2018-06-03T20:11:39.064Z,20.23
2018-06-03T20:14:13.160Z,20.24
2018-06-03T20:16:42.962Z,20.28
2018-06-03T20:19:13.308Z,19.96
2018-06-03T20:24:18.532Z,20.00
2018-06-03T20:26:48.812Z,19.75
2018-06-03T20:29:18.467Z,19.64
2018-06-03T20:31:48.198Z,19.59
2018-06-03T20:34:17.883Z,19.53
2018-06-03T21:15:12.683Z,18.59
2018-06-03T21:17:43.462Z,18.56
2018-06-03T21:25:37.710Z,18.57
2018-06-03T21:28:07.395Z,18.46
2018-06-03T21:30:37.071Z,18.35
2018-06-03T21:33:06.959Z,18.34
2018-06-03T21:35:36.629Z,18.27
2018-06-03T21:38:11.899Z,18.24
2018-06-03T21:40:41.627Z,18.21
2018-06-03T21:43:11.280Z,18.19
2018-06-03T21:45:40.993Z,18.20
2018-06-03T21:48:10.676Z,18.08
2018-06-03T21:50:40.358Z,18.07
2018-06-03T21:53:10.077Z,18.07
2018-06-03T21:55:39.726Z,17.97
2018-06-03T21:58:09.407Z,17.89
2018-06-03T22:00:39.040Z,17.98
2018-06-03T22:03:08.693Z,17.98
2018-06-03T22:05:38.325Z,17.93
2018-06-03T22:08:07.934Z,17.92
2018-06-03T22:10:37.755Z,17.81
2018-06-03T22:13:07.536Z,17.86
2018-06-03T22:15:37.310Z,17.96
2018-06-03T22:18:07.086Z,17.98
2018-06-03T22:20:36.993Z,17.90
2018-06-03T22:23:06.722Z,17.82
2018-06-03T22:25:36.405Z,17.81
2018-06-03T22:28:06.127Z,17.78
2018-06-03T22:30:35.876Z,17.77
2018-06-03T22:33:05.609Z,17.88
2018-06-03T22:35:35.294Z,18.00
2018-06-03T22:38:04.912Z,17.80
2018-06-03T22:40:34.975Z,17.92
2018-06-03T22:43:04.963Z,17.96
2018-06-03T22:45:34.591Z,17.89
2018-06-03T22:48:04.207Z,17.76
2018-06-03T22:50:33.978Z,17.63
2018-06-03T22:53:03.581Z,17.52
2018-06-03T22:55:33.226Z,17.44
2018-06-03T22:58:02.525Z,17.40
2018-06-03T23:00:33.132Z,17.34
2018-06-03T23:03:08.068Z,17.33
2018-06-03T23:05:37.773Z,17.30
2018-06-03T23:08:07.360Z,17.29
2018-06-03T23:10:36.991Z,17.29
2018-06-03T23:13:07.112Z,17.29
2018-06-03T23:15:36.850Z,17.31
2018-06-03T23:18:06.460Z,17.45
2018-06-03T23:20:36.178Z,17.43
2018-06-03T23:23:06.043Z,17.61
2018-06-03T23:25:35.640Z,17.70
2018-06-03T23:28:05.292Z,17.77
2018-06-03T23:30:34.852Z,17.71
2018-06-03T23:33:04.473Z,17.63
2018-06-03T23:35:34.040Z,17.76
2018-06-03T23:38:03.640Z,17.76
2018-06-03T23:40:33.199Z,17.67
2018-06-03T23:43:02.759Z,17.73
2018-06-03T23:45:32.338Z,17.62
2018-06-03T23:48:01.948Z,17.60
2018-06-03T23:50:31.568Z,17.57
2018-06-03T23:53:01.218Z,17.68
2018-06-03T23:55:30.853Z,17.58
2018-06-03T23:58:00.516Z,17.71
